• Join FlightAware (Why Join?)
  • Login
  • US Flag 
12:28AM EDT


 

Airport Tracker/Info


-or-


 

Live Flight TrackerFlight Track Log ✈ N261B ✈ 30-Mar-2014 ✈ FD88 - KCAE

Flight Track Log - Related Links

Times and Time Zones

All times are in EDT time to prevent confusion due to time zone crossing. See the N261B flight status page for this flight to view local times or setup timezone preferences in your user account.

Time Position Orientation Groundspeed Altitude Reporting Facility
EDT Latitude Longitude Course Direction KTS MPH feet Rate Location/Type
07:16AM 27.4319 -80.5094 16° North 124 143 3,800  Level Miami Center
07:17AM 27.4589 -80.5150 350° North 102 117 4,600 780 Climbing Miami Center
07:18AM 27.4922 -80.5206 352° North 102 117 5,400 720 Climbing Miami Center
07:19AM 27.5233 -80.5239 355° North 102 117 6,100 660 Climbing Miami Center
07:20AM 27.5525 -80.5297 350° North 102 117 6,800 420 Climbing Miami Center
07:21AM 27.5458 -80.4903 16° North  Level FlightAware Approximate
07:21AM 27.5836 -80.5353 351° North 108 124 7,000  Level Miami Center
07:22AM 27.6208 -80.5458 346° North 123 142 7,000  Level Miami Center
07:25AM 27.7167 -80.5667 349° North 147 169 7,000  Level Orlando TRACON
07:26AM 27.7500 -80.5667 360° North 138 159 7,100  Climbing Orlando TRACON
07:27AM 27.8000 -80.5833 344° North 140 161 7,000 -60 Descending Orlando TRACON
07:28AM 27.8333 -80.5833 360° North 142 163 7,000  Level Orlando TRACON
07:29AM 27.8667 -80.6000 336° Northwest 144 166 7,000  Level Orlando TRACON
07:30AM 27.9167 -80.6000 360° North 142 163 7,000  Level Orlando TRACON
07:31AM 27.9500 -80.6167 336° Northwest 144 166 7,000  Level Orlando TRACON
07:32AM 28.0000 -80.6167 360° North 144 166 7,000  Level Orlando TRACON
07:33AM 28.0333 -80.6333 336° Northwest 146 168 7,000  Level Orlando TRACON
07:34AM 28.0833 -80.6333 360° North 144 166 7,000  Level Orlando TRACON
07:35AM 28.1167 -80.6333 360° North 140 161 7,000  Level Orlando TRACON
07:36AM 28.1500 -80.6500 336° Northwest 138 159 7,000  Level Orlando TRACON
07:37AM 28.1833 -80.6667 336° Northwest 136 157 7,000  Level Orlando TRACON
07:38AM 28.2333 -80.6833 344° North 138 159 7,000  Level Orlando TRACON
07:39AM 28.2667 -80.7000 336° Northwest 134 154 7,100  Climbing Orlando TRACON
07:40AM 28.3000 -80.7167 336° Northwest 133 153 7,100  Level Orlando TRACON
07:41AM 28.3333 -80.7333 336° Northwest 136 157 7,100 -60 Level Orlando TRACON
07:42AM 28.3667 -80.7500 336° Northwest 136 157 7,000 -60 Descending Orlando TRACON
07:43AM 28.4000 -80.7500 360° North 141 162 7,000  Level Orlando TRACON
07:44AM 28.4333 -80.7667 336° Northwest 137 158 7,000  Level Orlando TRACON
07:45AM 28.4667 -80.7833 336° Northwest 134 154 7,100  Climbing Orlando TRACON
07:46AM 28.5167 -80.8000 344° North 138 159 7,000  Descending Orlando TRACON
07:47AM 28.5500 -80.8167 336° Northwest 140 161 7,100  Climbing Orlando TRACON
07:48AM 28.5833 -80.8333 336° Northwest 137 158 7,000 -60 Descending Orlando TRACON
07:49AM 28.6167 -80.8333 360° North 137 158 7,000  Level Orlando TRACON
07:50AM 28.6500 -80.8500 336° Northwest 132 152 7,100  Climbing Orlando TRACON
07:51AM 28.6833 -80.8667 336° Northwest 129 148 7,100 -60 Level Orlando TRACON
07:52AM 28.7167 -80.8833 336° Northwest 128 147 7,000 -60 Descending Orlando TRACON
07:53AM 28.7794 -80.9053 343° North 129 148 7,000  Level Jacksonville Center
07:54AM 28.8089 -80.9164 342° North 130 150 7,000  Level Jacksonville Center
07:55AM 28.8444 -80.9300 341° North 129 148 7,000  Level Jacksonville Center
07:56AM 28.8800 -80.9411 345° North 128 147 7,000  Level Jacksonville Center
07:57AM 28.9097 -80.9572 335° Northwest 129 148 7,000  Level Jacksonville Center
07:58AM 28.9431 -80.9683 344° North 126 145 7,000  Level Jacksonville Center
07:59AM 28.9808 -80.9819 343° North 129 148 7,000  Level Jacksonville Center
08:01AM 29.0186 -80.9978 340° North 127 146 7,000  Level Jacksonville Center
08:02AM 29.0544 -81.0114 342° North 126 145 7,000  Level Jacksonville Center
08:03AM 29.0858 -81.0250 339° North 128 147 7,000  Level Jacksonville Center
08:03AM 29.1133 -81.0364 340° North 125 144 7,000  Level Jacksonville Center
08:05AM 29.1511 -81.0522 340° North 124 143 7,100  Climbing Jacksonville Center
08:05AM 29.1806 -81.0661 338° Northwest 124 143 7,100 -60 Level Jacksonville Center
08:07AM 29.2161 -81.0797 342° North 128 147 7,000  Descending Jacksonville Center
08:08AM 29.2475 -81.0908 343° North 126 145 7,100  Climbing Jacksonville Center
08:09AM 29.2811 -81.1047 340° North 127 146 7,100  Level Jacksonville Center
08:10AM 29.3147 -81.1206 338° Northwest 128 147 7,100  Level Jacksonville Center
08:11AM 29.3522 -81.1200 North 137 158 7,100  Level Jacksonville Center
08:12AM 29.3881 -81.1289 348° North 132 152 7,100  Level Jacksonville Center
08:13AM 29.4278 -81.1331 355° North 128 147 7,100  Level Jacksonville Center
08:14AM 29.4611 -81.1394 351° North 129 148 7,100 -60 Level Jacksonville Center
08:15AM 29.4989 -81.1461 351° North 128 147 7,000  Descending Jacksonville Center
08:16AM 29.5322 -81.1525 351° North 125 144 7,100  Climbing Jacksonville Center
08:17AM 29.5658 -81.1567 354° North 125 144 7,000 -60 Descending Jacksonville Center
08:17AM 29.5950 -81.1633 349° North 126 145 7,000  Level Jacksonville Center
08:19AM 29.6369 -81.1744 347° North 122 140 7,000  Level Jacksonville Center
08:20AM 29.6683 -81.1811 350° North 123 142 7,000  Level Jacksonville Center
08:21AM 29.7019 -81.1878 350° North 122 140 7,000  Level Jacksonville Center
08:22AM 29.7353 -81.1944 350° North 123 142 7,000  Level Jacksonville Center
08:23AM 29.7731 -81.2033 348° North 120 138 7,000  Level Jacksonville Center
08:24AM 29.8067 -81.2097 351° North 123 142 7,000  Level Jacksonville Center
08:25AM 29.8422 -81.2189 347° North 121 139 7,100  Climbing Jacksonville Center
08:26AM 29.8756 -81.2256 350° North 122 140 7,100  Level Jacksonville Center
08:27AM 29.9050 -81.2297 353° North 123 142 7,100 -60 Level Jacksonville Center
08:28AM 29.9406 -81.2386 348° North 124 143 7,000 -60 Descending Jacksonville Center
08:29AM 29.9761 -81.2453 351° North 123 142 7,000  Level Jacksonville Center
08:30AM 30.0094 -81.2494 354° North 121 139 7,000  Level Jacksonville Center
08:31AM 30.0411 -81.2561 350° North 119 137 7,000  Level Jacksonville Center
08:32AM 30.0722 -81.2606 353° North 119 137 7,100  Climbing Jacksonville Center
08:33AM 30.1058 -81.2647 354° North 118 136 7,100  Level Jacksonville Center
08:34AM 30.1394 -81.2736 347° North 118 136 7,100  Level Jacksonville Center
08:35AM 30.1750 -81.2803 351° North 117 135 7,100  Level Jacksonville Center
08:36AM 30.2083 -81.2844 354° North 121 139 7,100 -60 Level Jacksonville Center
08:37AM 30.2397 -81.2914 349° North 121 139 7,000 -60 Descending Jacksonville Center
08:38AM 30.2775 -81.2978 352° North 122 140 7,000  Level Jacksonville Center
08:39AM 30.3108 -81.3094 343° North 120 138 7,000  Level Jacksonville Center
08:40AM 30.3422 -81.3136 353° North 119 137 7,000  Level Jacksonville Center
08:41AM 30.3736 -81.3203 350° North 116 133 7,000  Level Jacksonville Center
08:42AM 30.4094 -81.3294 348° North 117 135 7,100  Climbing Jacksonville Center
08:43AM 30.4386 -81.3336 353° North 116 133 7,100 -60 Level Jacksonville Center
08:44AM 30.4700 -81.3428 346° North 116 133 7,000 -60 Descending Jacksonville Center
08:45AM 30.5036 -81.3494 350° North 121 139 7,000  Level Jacksonville Center
08:46AM 30.5369 -81.3561 350° North 118 136 7,000  Level Jacksonville Center
08:46AM 30.5453 -81.3561 360° North 116 133 7,000  Level Jacksonville Center
08:47AM 30.5664 -81.3606 350° North 116 133 7,000  Level Jacksonville Center
08:47AM 30.5767 -81.3628 349° North 116 133 7,000  Level Jacksonville Center
08:48AM 30.5997 -81.3672 351° North 117 135 7,000  Level Jacksonville Center
08:48AM 30.6103 -81.3719 339° North 116 133 7,000 -120 Level Jacksonville Center
08:49AM 30.6311 -81.3739 355° North 114 131 6,900 -120 Descending Jacksonville Center
08:49AM 30.6394 -81.3739 360° North 116 133 6,900 60 Level Jacksonville Center
08:50AM 30.6647 -81.3758 356° North 113 130 7,000 60 Climbing Jacksonville Center
08:50AM 30.6708 -81.3783 341° North 116 133 7,000 -120 Level Jacksonville Center
08:51AM 30.7022 -81.3850 350° North 116 133 6,900  Descending Jacksonville Center
08:52AM 30.7336 -81.3917 350° North 110 127 7,100 60 Climbing Jacksonville Center
08:53AM 30.7631 -81.3961 353° North 115 132 7,100  Level Jacksonville Center
08:54AM 30.7944 -81.4028 350° North 115 132 7,100  Level Jacksonville Center
08:55AM 30.8258 -81.4097 349° North 115 132 7,100  Level Jacksonville Center
08:56AM 30.8614 -81.4164 351° North 115 132 7,100 -60 Level Jacksonville Center
08:57AM 30.8928 -81.4206 354° North 120 138 7,000 -60 Descending Jacksonville Center
08:58AM 30.9242 -81.4275 349° North 120 138 7,000  Level Jacksonville Center
08:59AM 30.9533 -81.4342 349° North 120 138 7,100  Climbing Jacksonville Center
09:00AM 30.9847 -81.4411 349° North 114 131 7,000 -60 Descending Jacksonville Center
09:01AM 31.0161 -81.4381 North 109 125 7,000  Level Jacksonville Center
09:02AM 31.0494 -81.4303 11° North 109 125 7,100  Climbing Jacksonville Center
09:03AM 31.0806 -81.4225 12° North 109 125 7,000 -60 Descending Jacksonville Center
09:04AM 31.1139 -81.4147 11° North 115 132 7,000  Level Jacksonville Center
09:05AM 31.1453 -81.4069 12° North 115 132 7,000  Level Jacksonville Center
09:06AM 31.1744 -81.4017 North 110 127 7,000  Level Jacksonville Center
09:07AM 31.2078 -81.3964 North 110 127 7,000  Level Jacksonville Center
09:08AM 31.2431 -81.3886 11° North 110 127 7,000  Level Jacksonville Center
09:09AM 31.2744 -81.3831 North 116 133 7,100 60 Climbing Jacksonville Center
09:10AM 31.3056 -81.3753 12° North 116 133 7,200  Climbing Jacksonville Center
09:11AM 31.3369 -81.3700 North 116 133 7,100 -120 Descending Jacksonville Center
09:12AM 31.3744 -81.3619 10° North 121 139 7,000 -60 Descending Jacksonville Center
09:13AM 31.4078 -81.3542 11° North 130 150 7,000  Level Jacksonville Center
09:14AM 31.4411 -81.3464 11° North 122 140 7,000  Level Jacksonville Center
09:15AM 31.4703 -81.3408 North 121 139 7,100  Climbing Jacksonville Center
09:16AM 31.5033 -81.3331 11° North 121 139 7,100 -60 Level Jacksonville Center
09:17AM 31.5389 -81.3253 11° North 121 139 7,000 -60 Descending Jacksonville Center
09:18AM 31.5700 -81.3172 12° North 121 139 7,000  Level Jacksonville Center
09:19AM 31.6014 -81.3094 12° North 121 139 7,000  Level Jacksonville Center
09:20AM 31.6347 -81.3017 11° North 126 145 7,000  Level Jacksonville Center
09:21AM 31.6700 -81.2961 North 121 139 7,000  Level Jacksonville Center
09:22AM 31.7011 -81.2883 12° North 121 139 7,100  Climbing Jacksonville Center
09:23AM 31.7344 -81.2828 North 121 139 7,100  Level Jacksonville Center
09:24AM 31.7636 -81.2750 13° North 121 139 7,100 -60 Level Jacksonville Center
09:25AM 31.7969 -81.2694 North 121 139 7,000 -60 Descending Jacksonville Center
09:43AM 32.3914 -81.2244 352° North 128 147 7,000  Level Jacksonville Center
09:44AM 32.4394 -81.3695 352° North  Level FlightAware Approximate
09:44AM 32.4250 -81.2314 350° North 126 145 7,000  Level Jacksonville Center
09:45AM 32.4746 -81.3750 352° North  Level FlightAware Approximate
09:45AM 32.4542 -81.2356 353° North 120 138 7,000  Level Jacksonville Center
09:46AM 32.5098 -81.3806 352° North  Level FlightAware Approximate
09:46AM 32.4878 -81.2425 350° North 120 138 7,000  Level Jacksonville Center
09:47AM 32.5451 -81.3861 352° North  Level FlightAware Approximate
09:47AM 32.5233 -81.2492 351° North 125 144 6,900  Level Jacksonville Center
09:48AM 32.5567 -81.2536 354° North 120 138 7,000  Climbing Jacksonville Center
09:49AM 32.5903 -81.2603 351° North 120 138 7,000 -60 Level Jacksonville Center
09:50AM 32.6194 -81.2622 357° North 120 138 6,900 -60 Descending Jacksonville Center
09:51AM 32.6508 -81.2667 353° North 120 138 6,900  Level Jacksonville Center
09:52AM 32.6844 -81.2708 354° North 125 144 7,000  Climbing Jacksonville Center
09:53AM 32.7158 -81.2753 353° North 125 144 7,000 -60 Level Jacksonville Center
09:54AM 32.7492 -81.2797 354° North 120 138 6,900  Descending Jacksonville Center
09:55AM 32.7825 -81.2864 350° North 120 138 7,000  Climbing Jacksonville Center
09:56AM 32.8161 -81.2908 354° North 120 138 7,000  Level Jacksonville Center
09:57AM 32.8517 -81.2975 351° North 126 145 7,000  Level Jacksonville Center
09:58AM 32.8850 -81.2994 357° North 126 145 7,000  Level Jacksonville Center
09:59AM 32.9164 -81.3064 349° North 126 145 7,000  Level Jacksonville Center
10:00AM 32.9500 -81.3083 357° North 126 145 7,000  Level Jacksonville Center
10:01AM 32.9833 -81.3150 350° North 126 145 7,000  Level Jacksonville Center
10:02AM 33.0169 -81.3194 354° North 126 145 7,000 -60 Level Jacksonville Center
10:03AM 33.0503 -81.3239 354° North 126 145 6,900 -60 Descending Jacksonville Center
10:04AM 33.0858 -81.3306 351° North 121 139 6,900  Level Jacksonville Center
10:05AM 33.1150 -81.3325 357° North 121 139 7,000  Climbing Jacksonville Center
10:06AM 33.1486 -81.3369 354° North 121 139 7,000 -60 Level Jacksonville Center
10:07AM 33.1819 -81.3389 357° North 121 139 6,900  Descending Jacksonville Center
10:08AM 33.2133 -81.3458 350° North 121 139 7,000  Climbing Jacksonville Center
10:09AM 33.2467 -81.3478 357° North 121 139 7,000  Level Jacksonville Center
10:10AM 33.2739 -81.3547 348° North 121 139 7,000  Level Jacksonville Center
10:11AM 33.3094 -81.3567 357° North 116 133 7,100  Climbing Jacksonville Center
10:12AM 33.3389 -81.3636 349° North 116 133 7,100 -60 Level Jacksonville Center
10:13AM 33.3764 -81.3603 North 121 139 7,000 -60 Descending Jacksonville Center
10:14AM 33.4056 -81.3672 349° North 115 132 7,000  Level Jacksonville Center
10:16AM 33.4697 -81.3778 352° North  Level FlightAware Approximate
10:23AM 33.7145 -81.4184 352° North  Level FlightAware Approximate
10:24AM 33.7494 -81.4242 352° North  Level FlightAware Approximate
10:25AM 33.7844 -81.4301 352° North  Level FlightAware Approximate
10:26AM 33.8194 -81.4359 352° North  Level FlightAware Approximate
10:27AM 33.8544 -81.4417 352° North  Level FlightAware Approximate
10:28AM 33.8893 -81.4475 352° North  Level FlightAware Approximate
10:29AM 33.9243 -81.4534 352° North  Level FlightAware Approximate
10:30AM 33.9593 -81.4592 352° North  Level FlightAware Approximate
10:31AM 33.9565 -81.4129 94° East  Level Estimated